Time;durP1;ratioP1;P1;durP2;ratioP2;P2;SDS_P1;SDS_P2;PMS_P1;PMS_P2;Temp;Humidity;BMP_temperature;BMP_pressure;BME280_temperature;BME280_humidity;BME280_pressure;Samples;Min_cycle;Max_cycle;Signal;HPM_P1;HPM_P2
2022/12/22 03:26:24;;;;;;;;;;;12.90;99.90;;;;;;6127551;23;19927;-81
2022/12/22 03:28:49;;;;;;;;;;;12.90;99.90;;;;;;6127934;23;20403;-80
2022/12/22 03:31:15;;;;;;;;;;;13.00;99.90;;;;;;6127821;23;19912;-79
2022/12/22 03:33:41;;;;;;;;;;;13.00;99.90;;;;;;6127294;23;19909;-79
2022/12/22 03:36:07;;;;;;;;;;;13.00;99.90;;;;;;6128001;23;19912;-80
2022/12/22 03:38:32;;;;;;;;;;;13.00;99.90;;;;;;6127812;23;20316;-80
2022/12/22 03:40:58;;;;;;;;;;;13.00;1.00;;;;;;6127759;23;20332;-80
2022/12/22 03:48:42;;;;;;;;;;;12.90;99.90;;;;;;6127699;23;19987;-79
2022/12/22 03:51:08;;;;;;;;;;;12.90;1.00;;;;;;6127837;23;19905;-79
2022/12/22 03:53:34;;;;;;;;;;;12.80;1.00;;;;;;6127125;23;19913;-80
2022/12/22 03:55:59;;;;;;;;;;;12.90;99.90;;;;;;6127325;23;19920;-80
2022/12/22 03:58:25;;;;;;;;;;;12.80;99.90;;;;;;6127696;23;20280;-79
2022/12/22 04:00:50;;;;;;;;;;;12.80;99.90;;;;;;6127558;23;19905;-79
2022/12/22 04:03:16;;;;;;;;;;;12.90;99.90;;;;;;6127378;23;19905;-79
2022/12/22 04:05:42;;;;;;;;;;;12.80;99.90;;;;;;6127493;23;19983;-79
2022/12/22 04:08:08;;;;;;;;;;;12.80;99.90;;;;;;6127303;23;20279;-80
2022/12/22 04:13:17;;;;;;;;;;;12.80;99.90;;;;;;6127017;23;19916;-79
2022/12/22 04:15:42;;;;;;;;;;;12.80;99.90;;;;;;6127435;23;19905;-80
2022/12/22 04:18:08;;;;;;;;;;;12.90;99.90;;;;;;6127584;23;20221;-79
2022/12/22 04:20:34;;;;;;;;;;;12.90;99.90;;;;;;6127121;23;19979;-79
2022/12/22 04:22:59;;;;;;;;;;;12.90;99.90;;;;;;6127051;23;19920;-79
2022/12/22 04:25:25;;;;;;;;;;;12.90;99.90;;;;;;6127398;23;19972;-79
2022/12/22 04:27:51;;;;;;;;;;;12.90;99.90;;;;;;6127345;23;19905;-79
2022/12/22 04:30:17;;;;;;;;;;;12.90;99.90;;;;;;6127415;23;19912;-79
2022/12/22 04:32:42;;;;;;;;;;;12.90;99.90;;;;;;6126649;23;19909;-79
2022/12/22 04:35:08;;;;;;;;;;;13.00;99.90;;;;;;6127268;23;19913;-79
2022/12/22 04:37:34;;;;;;;;;;;13.00;94.70;;;;;;6127324;23;19995;-79
2022/12/22 04:40:00;;;;;;;;;;;13.10;33.50;;;;;;6127179;23;19912;-79
2022/12/22 04:42:25;;;;;;;;;;;12.90;99.90;;;;;;6127108;23;19912;-80
2022/12/22 04:44:51;;;;;;;;;;;12.90;1.00;;;;;;6126793;23;19905;-78
2022/12/22 04:47:16;;;;;;;;;;;12.90;99.90;;;;;;6101245;23;19905;-80
2022/12/22 04:49:42;;;;;;;;;;;12.80;99.90;;;;;;6127145;23;20320;-80
2022/12/22 04:52:08;;;;;;;;;;;12.80;99.90;;;;;;6127265;23;20095;-79
2022/12/22 04:54:33;;;;;;;;;;;12.80;1.00;;;;;;6126613;23;19980;-78
2022/12/22 04:56:59;;;;;;;;;;;12.90;1.00;;;;;;6126482;23;19920;-79
2022/12/22 04:59:25;;;;;;;;;;;12.90;1.00;;;;;;6101190;23;20247;-81
2022/12/22 05:01:51;;;;;;;;;;;12.90;99.90;;;;;;6126997;23;19904;-79
2022/12/22 05:04:16;;;;;;;;;;;12.90;99.90;;;;;;6126554;23;19912;-80
2022/12/22 05:06:42;;;;;;;;;;;13.00;99.90;;;;;;6126953;23;19976;-79
2022/12/22 05:09:08;;;;;;;;;;;13.10;1.00;;;;;;6126996;23;20279;-79
2022/12/22 05:11:34;;;;;;;;;;;13.10;1.00;;;;;;6126933;23;19912;-79
2022/12/22 05:13:59;;;;;;;;;;;13.10;1.00;;;;;;6126265;23;19909;-80
2022/12/22 05:16:25;;;;;;;;;;;13.00;99.90;;;;;;6126997;23;19905;-79
2022/12/22 05:18:50;;;;;;;;;;;13.10;80.60;;;;;;6126635;23;19943;-80
2022/12/22 05:21:17;;;;;;;;;;;13.10;1.00;;;;;;6126844;23;19912;-78
2022/12/22 05:23:43;;;;;;;;;;;13.10;99.90;;;;;;6126448;23;19909;-79
2022/12/22 05:26:09;;;;;;;;;;;13.10;99.90;;;;;;6126798;23;19916;-79
2022/12/22 05:28:35;;;;;;;;;;;13.20;97.80;;;;;;6126951;23;20367;-79
2022/12/22 05:31:05;;;;;;;;;;;13.10;1.00;;;;;;6126643;23;19909;-79
2022/12/22 05:33:30;;;;;;;;;;;13.20;1.00;;;;;;6126348;23;19909;-79
2022/12/22 05:35:56;;;;;;;;;;;13.20;99.90;;;;;;6126763;23;19905;-79
2022/12/22 05:38:22;;;;;;;;;;;13.10;1.00;;;;;;6126727;23;19912;-79
2022/12/22 05:40:48;;;;;;;;;;;13.10;99.90;;;;;;6126650;23;19933;-79
2022/12/22 05:43:13;;;;;;;;;;;13.10;1.00;;;;;;6126274;23;19912;-78
2022/12/22 05:45:39;;;;;;;;;;;13.10;1.00;;;;;;6126789;23;20283;-78
2022/12/22 05:48:05;;;;;;;;;;;13.20;99.90;;;;;;6126589;23;20247;-79
2022/12/22 05:50:31;;;;;;;;;;;13.20;1.00;;;;;;6126723;23;19985;-79
2022/12/22 05:52:57;;;;;;;;;;;13.10;1.00;;;;;;6126243;23;19909;-78
2022/12/22 05:55:22;;;;;;;;;;;13.10;38.40;;;;;;6126250;23;19913;-78
2022/12/22 05:57:48;;;;;;;;;;;13.10;1.00;;;;;;6126600;23;20291;-79
2022/12/22 06:00:14;;;;;;;;;;;13.00;1.00;;;;;;6126505;23;19912;-79
2022/12/22 06:02:41;;;;;;;;;;;13.10;1.00;;;;;;6126199;23;19909;-78
2022/12/22 06:05:07;;;;;;;;;;;13.10;1.00;;;;;;6126461;23;19905;-79
2022/12/22 06:07:32;;;;;;;;;;;13.10;1.00;;;;;;6126375;23;19948;-78
2022/12/22 06:09:58;;;;;;;;;;;13.00;1.00;;;;;;6126564;23;20399;-77
2022/12/22 06:12:24;;;;;;;;;;;13.00;1.00;;;;;;6126372;23;19908;-78
2022/12/22 06:14:49;;;;;;;;;;;13.00;1.00;;;;;;6126021;23;19905;-78
2022/12/22 06:17:15;;;;;;;;;;;12.90;1.00;;;;;;6126390;23;19905;-79
2022/12/22 06:19:40;;;;;;;;;;;12.90;99.90;;;;;;6126206;23;19905;-78
2022/12/22 06:22:06;;;;;;;;;;;12.90;1.00;;;;;;6126430;23;20055;-78
2022/12/22 06:24:31;;;;;;;;;;;12.90;1.00;;;;;;6126007;23;19912;-79
2022/12/22 06:26:57;;;;;;;;;;;12.90;1.00;;;;;;6126462;23;20288;-78
2022/12/22 06:29:23;;;;;;;;;;;13.00;1.00;;;;;;6100603;23;19948;-78
2022/12/22 06:31:48;;;;;;;;;;;13.00;1.00;;;;;;6127242;23;19964;-79
2022/12/22 06:34:16;;;;;;;;;;;13.00;1.00;;;;;;6102067;23;19905;-78
2022/12/22 06:36:43;;;;;;;;;;;13.00;1.00;;;;;;6128478;23;19933;-77
2022/12/22 06:39:09;;;;;;;;;;;12.90;1.00;;;;;;6128346;23;19932;-79
2022/12/22 06:44:18;;;;;;;;;;;13.10;1.00;;;;;;6127813;23;19911;-78
2022/12/22 06:46:44;;;;;;;;;;;13.20;1.00;;;;;;6128343;23;19984;-78
2022/12/22 06:49:09;;;;;;;;;;;13.20;1.00;;;;;;6128411;23;19957;-78
2022/12/22 06:51:35;;;;;;;;;;;13.20;1.00;;;;;;6128230;23;19937;-78
2022/12/22 06:54:00;;;;;;;;;;;13.20;1.00;;;;;;6127782;23;19908;-78
2022/12/22 06:56:26;;;;;;;;;;;13.10;1.00;;;;;;6126447;23;19924;-78
2022/12/22 06:58:51;;;;;;;;;;;13.10;99.90;;;;;;6100488;23;20244;-78
2022/12/22 07:01:17;;;;;;;;;;;13.10;1.00;;;;;;6126276;23;19912;-78
2022/12/22 07:03:42;;;;;;;;;;;13.00;1.00;;;;;;6126005;23;19980;-78
2022/12/22 07:06:08;;;;;;;;;;;13.00;1.00;;;;;;6126270;23;19931;-78
2022/12/22 07:08:34;;;;;;;;;;;13.00;1.00;;;;;;6125874;23;19947;-78
2022/12/22 07:10:59;;;;;;;;;;;13.10;1.00;;;;;;6126454;23;19905;-78
2022/12/22 07:13:26;;;;;;;;;;;13.00;1.00;;;;;;6125889;23;20296;-78
2022/12/22 07:15:52;;;;;;;;;;;13.10;1.00;;;;;;6126235;23;19986;-77
2022/12/22 07:18:18;;;;;;;;;;;13.10;1.00;;;;;;6126223;23;19905;-78
2022/12/22 07:20:43;;;;;;;;;;;13.00;29.60;;;;;;6125821;23;19912;-78
2022/12/22 07:23:09;;;;;;;;;;;13.00;66.00;;;;;;6125918;23;19940;-77
2022/12/22 07:25:35;;;;;;;;;;;13.00;99.90;;;;;;6100161;23;19952;-77
2022/12/22 07:28:01;;;;;;;;;;;12.90;1.00;;;;;;6126391;23;19939;-78
2022/12/22 07:30:26;;;;;;;;;;;13.00;1.00;;;;;;6126131;23;19972;-78
2022/12/22 07:32:52;;;;;;;;;;;13.00;1.00;;;;;;6125930;23;20395;-78
2022/12/22 07:35:17;;;;;;;;;;;13.00;1.00;;;;;;6126194;23;20387;-78
2022/12/22 07:37:43;;;;;;;;;;;13.10;1.00;;;;;;6126085;23;19912;-77
2022/12/22 07:40:09;;;;;;;;;;;13.00;1.00;;;;;;6126158;23;20243;-78
2022/12/22 07:42:43;;;;;;;;;;;13.00;1.00;;;;;;6125784;23;19976;-78
2022/12/22 07:45:16;;;;;;;;;;;13.00;85.80;;;;;;6125660;23;19909;-78
2022/12/22 07:47:42;;;;;;;;;;;13.00;1.00;;;;;;6126007;23;19933;-78
2022/12/22 07:50:24;;;;;;;;;;;12.90;1.00;;;;;;6126247;23;19988;-77
2022/12/22 07:52:53;;;;;;;;;;;13.00;99.90;;;;;;6125867;23;19916;-79
2022/12/22 07:55:20;;;;;;;;;;;12.90;1.00;;;;;;6038263;23;2056785;-78
2022/12/22 07:57:45;;;;;;;;;;;13.00;1.00;;;;;;6101327;23;19916;-78
2022/12/22 08:00:11;;;;;;;;;;;13.00;99.90;;;;;;6127721;23;19909;-78
2022/12/22 08:02:37;;;;;;;;;;;12.90;36.00;;;;;;6101564;23;20355;-78
2022/12/22 08:05:03;;;;;;;;;;;13.00;99.90;;;;;;6127100;23;19905;-77
2022/12/22 08:07:31;;;;;;;;;;;13.00;84.10;;;;;;6127374;23;19916;-78
2022/12/22 08:09:57;;;;;;;;;;;13.10;90.70;;;;;;6127493;23;19905;-80
2022/12/22 08:12:22;;;;;;;;;;;13.20;99.90;;;;;;6101449;23;19916;-80
2022/12/22 08:14:48;;;;;;;;;;;13.10;1.00;;;;;;6126971;23;19905;-79
2022/12/22 08:17:13;;;;;;;;;;;13.10;99.90;;;;;;6127703;23;19932;-78
2022/12/22 08:19:39;;;;;;;;;;;13.10;99.90;;;;;;6127182;23;19955;-81
2022/12/22 08:22:05;;;;;;;;;;;13.20;34.80;;;;;;6127390;23;19911;-79
2022/12/22 08:24:31;;;;;;;;;;;13.10;95.20;;;;;;6127040;23;19937;-80
2022/12/22 08:26:57;;;;;;;;;;;13.20;1.00;;;;;;6127306;23;20324;-79
2022/12/22 08:29:27;;;;;;;;;;;13.20;99.90;;;;;;6127574;23;19912;-79
2022/12/22 08:31:53;;;;;;;;;;;13.30;1.00;;;;;;6126984;23;19905;-79
2022/12/22 08:34:18;;;;;;;;;;;13.30;99.90;;;;;;6127036;23;19905;-79
2022/12/22 08:36:50;;;;;;;;;;;13.40;1.00;;;;;;6127274;23;19912;-79
2022/12/22 08:39:16;;;;;;;;;;;13.40;99.90;;;;;;6127432;23;19968;-80
2022/12/22 08:41:52;;;;;;;;;;;13.50;1.00;;;;;;6127268;23;19992;-80
2022/12/22 08:44:24;;;;;;;;;;;13.50;1.20;;;;;;6126685;23;19905;-81
2022/12/22 08:46:51;;;;;;;;;;;13.50;1.00;;;;;;6127142;23;19905;-80
2022/12/22 08:49:17;;;;;;;;;;;13.50;1.00;;;;;;6127170;23;19956;-79
2022/12/22 08:51:43;;;;;;;;;;;13.50;1.00;;;;;;6127110;23;19909;-78
2022/12/22 08:54:08;;;;;;;;;;;13.60;1.00;;;;;;6126279;23;19915;-80
2022/12/22 08:56:34;;;;;;;;;;;13.60;1.00;;;;;;6126887;23;19917;-80
2022/12/22 08:59:03;;;;;;;;;;;13.60;1.00;;;;;;6101106;23;19912;-79
2022/12/22 09:01:31;;;;;;;;;;;13.60;1.00;;;;;;6101118;23;19909;-80
2022/12/22 09:03:57;;;;;;;;;;;13.60;1.00;;;;;;6126485;23;20352;-80
2022/12/22 09:06:23;;;;;;;;;;;13.60;1.00;;;;;;6127280;23;19952;-78
2022/12/22 09:08:55;;;;;;;;;;;13.60;1.00;;;;;;6126888;23;20332;-79
2022/12/22 09:11:21;;;;;;;;;;;13.70;1.00;;;;;;6126931;23;19909;-80
2022/12/22 09:13:46;;;;;;;;;;;13.70;71.60;;;;;;6126640;23;19909;-79
2022/12/22 09:16:12;;;;;;;;;;;13.70;1.00;;;;;;6100847;23;19912;-79
2022/12/22 09:18:37;;;;;;;;;;;13.70;1.00;;;;;;6126864;23;19905;-80
2022/12/22 09:21:03;;;;;;;;;;;13.70;1.00;;;;;;6126928;23;19905;-79
2022/12/22 09:23:30;;;;;;;;;;;13.80;1.00;;;;;;6126542;23;19909;-79
2022/12/22 09:25:55;;;;;;;;;;;13.80;1.00;;;;;;6126789;23;19905;-79
2022/12/22 09:28:21;;;;;;;;;;;13.80;1.00;;;;;;6126849;23;19980;-79
2022/12/22 09:30:50;;;;;;;;;;;13.70;1.00;;;;;;6126731;23;20237;-79
2022/12/22 09:33:16;;;;;;;;;;;13.80;1.00;;;;;;6126658;23;19959;-79
2022/12/22 09:35:41;;;;;;;;;;;13.80;1.00;;;;;;6126707;23;19948;-79
2022/12/22 09:38:07;;;;;;;;;;;13.80;1.00;;;;;;6126702;23;19904;-79
2022/12/22 09:40:33;;;;;;;;;;;13.90;1.00;;;;;;6126884;23;19905;-79
2022/12/22 09:42:58;;;;;;;;;;;13.80;1.00;;;;;;6126518;23;19941;-79
2022/12/22 09:45:24;;;;;;;;;;;13.90;1.00;;;;;;6126236;23;19960;-80
2022/12/22 09:47:54;;;;;;;;;;;13.80;1.00;;;;;;6100647;23;19936;-79
2022/12/22 09:50:22;;;;;;;;;;;13.80;1.00;;;;;;6126647;23;19909;-79
2022/12/22 09:52:50;;;;;;;;;;;13.80;1.00;;;;;;6126563;23;19908;-79
2022/12/22 09:55:19;;;;;;;;;;;13.90;1.00;;;;;;6099974;23;19913;-79
2022/12/22 09:57:45;;;;;;;;;;;13.80;1.00;;;;;;6126794;23;19912;-79
2022/12/22 10:00:14;;;;;;;;;;;13.80;1.00;;;;;;6126562;23;19905;-78
2022/12/22 10:02:55;;;;;;;;;;;13.80;1.00;;;;;;6126657;23;19905;-78
2022/12/22 10:05:31;;;;;;;;;;;13.70;96.40;;;;;;6125943;23;19980;-79
2022/12/22 10:08:01;;;;;;;;;;;13.60;99.90;;;;;;6100280;23;19905;-79
2022/12/22 10:10:28;;;;;;;;;;;13.70;99.90;;;;;;6126461;23;19905;-80
2022/12/22 10:12:55;;;;;;;;;;;13.60;99.90;;;;;;6126473;23;20297;-79
2022/12/22 10:15:20;;;;;;;;;;;13.60;99.90;;;;;;6125907;23;19909;-79
2022/12/22 10:17:48;;;;;;;;;;;13.50;99.90;;;;;;6126593;23;19960;-79
2022/12/22 10:20:20;;;;;;;;;;;13.40;99.90;;;;;;6126065;23;19905;-78
2022/12/22 10:22:50;;;;;;;;;;;13.30;1.00;;;;;;6126752;23;19980;-78
2022/12/22 10:25:34;;;;;;;;;;;13.30;1.00;;;;;;6125986;23;19948;-79
2022/12/22 10:28:02;;;;;;;;;;;13.30;1.00;;;;;;6126512;23;19932;-79
2022/12/22 10:30:31;;;;;;;;;;;13.30;1.00;;;;;;6126377;23;19905;-79
2022/12/22 10:33:02;;;;;;;;;;;13.30;1.00;;;;;;6126380;23;19909;-78
2022/12/22 10:35:53;;;;;;;;;;;13.20;99.90;;;;;;6125989;23;20032;-79
2022/12/22 10:38:21;;;;;;;;;;;13.20;99.90;;;;;;6120577;23;19909;-80
2022/12/22 10:40:48;;;;;;;;;;;13.30;99.90;;;;;;6126463;23;19937;-79
2022/12/22 10:43:25;;;;;;;;;;;13.30;99.90;;;;;;6126248;23;19905;-79
2022/12/22 10:45:51;;;;;;;;;;;13.30;99.90;;;;;;6125918;23;19905;-79
2022/12/22 10:48:24;;;;;;;;;;;13.20;99.90;;;;;;6126326;23;19905;-78
2022/12/22 10:50:50;;;;;;;;;;;13.20;99.90;;;;;;6126410;23;19909;-78
2022/12/22 10:53:19;;;;;;;;;;;13.20;99.90;;;;;;6126141;23;19916;-80
2022/12/22 10:55:45;;;;;;;;;;;13.20;99.90;;;;;;6125670;23;20340;-79
2022/12/22 10:58:20;;;;;;;;;;;13.20;99.90;;;;;;6126341;23;19935;-77
2022/12/22 11:00:59;;;;;;;;;;;13.20;99.90;;;;;;6126399;23;19937;-77
2022/12/22 11:03:29;;;;;;;;;;;13.20;99.90;;;;;;6126215;23;19909;-79
2022/12/22 11:05:56;;;;;;;;;;;13.20;99.90;;;;;;6125832;23;19912;-80
2022/12/22 11:08:23;;;;;;;;;;;13.10;99.90;;;;;;6126004;23;19952;-80
2022/12/22 11:10:54;;;;;;;;;;;13.10;99.90;;;;;;6126293;23;19915;-82
2022/12/22 11:13:21;;;;;;;;;;;13.10;99.90;;;;;;6126937;23;19936;-82
2022/12/22 11:15:50;;;;;;;;;;;13.10;99.90;;;;;;6125770;23;20247;-81
2022/12/22 11:18:34;;;;;;;;;;;13.10;99.90;;;;;;6127524;23;19912;-81
2022/12/22 11:21:01;;;;;;;;;;;13.10;99.90;;;;;;6128105;23;19944;-81
2022/12/22 11:23:34;;;;;;;;;;;13.10;99.90;;;;;;6128003;23;19905;-81
2022/12/22 11:26:06;;;;;;;;;;;13.10;99.90;;;;;;6127515;23;20307;-80
2022/12/22 11:28:37;;;;;;;;;;;13.10;99.90;;;;;;6127877;23;19971;-81
2022/12/22 11:31:22;;;;;;;;;;;13.10;99.90;;;;;;6127912;23;19987;-81
2022/12/22 11:33:47;;;;;;;;;;;13.10;99.90;;;;;;6127584;23;20358;-81
2022/12/22 11:36:33;;;;;;;;;;;13.10;99.90;;;;;;6128027;23;19905;-80
2022/12/22 11:38:59;;;;;;;;;;;13.10;99.90;;;;;;6127899;23;19905;-81
2022/12/22 11:41:33;;;;;;;;;;;13.10;99.90;;;;;;6128327;23;19905;-82
2022/12/22 11:44:05;;;;;;;;;;;13.10;99.90;;;;;;6127762;23;19931;-81
2022/12/22 11:46:33;;;;;;;;;;;13.10;99.90;;;;;;6128126;23;19905;-81
2022/12/22 11:49:05;;;;;;;;;;;13.10;99.90;;;;;;6127754;23;19909;-80
2022/12/22 11:51:45;;;;;;;;;;;13.10;99.90;;;;;;6127706;23;19980;-81
2022/12/22 11:54:14;;;;;;;;;;;13.10;99.90;;;;;;6102240;23;19995;-81
2022/12/22 11:56:41;;;;;;;;;;;13.10;99.90;;;;;;6127786;23;19943;-81
2022/12/22 11:59:31;;;;;;;;;;;13.20;99.90;;;;;;6127757;23;19912;-80
2022/12/22 12:01:57;;;;;;;;;;;13.20;99.90;;;;;;6127664;23;19912;-80
2022/12/22 12:04:25;;;;;;;;;;;13.20;99.90;;;;;;6127273;23;19905;-80
2022/12/22 12:07:02;;;;;;;;;;;13.20;99.90;;;;;;6101496;23;19912;-80
2022/12/22 12:09:31;;;;;;;;;;;13.20;99.90;;;;;;6127750;23;19983;-81
2022/12/22 12:12:01;;;;;;;;;;;13.10;99.90;;;;;;6127562;23;19980;-81
2022/12/22 12:14:35;;;;;;;;;;;13.10;99.90;;;;;;6127470;23;19960;-80
2022/12/22 12:17:06;;;;;;;;;;;13.10;99.90;;;;;;6127981;23;19905;-80
2022/12/22 12:19:50;;;;;;;;;;;13.10;99.90;;;;;;6127392;23;20247;-80
2022/12/22 12:22:36;;;;;;;;;;;13.10;99.90;;;;;;6127592;23;19905;-80
2022/12/22 12:25:15;;;;;;;;;;;13.10;99.90;;;;;;6126328;23;19911;-80
2022/12/22 12:27:59;;;;;;;;;;;13.10;99.90;;;;;;6127359;23;19972;-80
2022/12/22 12:30:28;;;;;;;;;;;13.10;99.90;;;;;;6127144;23;19905;-80
2022/12/22 12:32:54;;;;;;;;;;;13.10;99.90;;;;;;6126866;23;19909;-80
2022/12/22 12:35:41;;;;;;;;;;;13.20;99.90;;;;;;6127001;23;19916;-80
2022/12/22 12:38:09;;;;;;;;;;;13.20;99.90;;;;;;6127353;23;19912;-80
2022/12/22 12:40:46;;;;;;;;;;;13.20;99.90;;;;;;6127408;23;19905;-79
2022/12/22 12:43:13;;;;;;;;;;;13.20;99.90;;;;;;6127185;23;19980;-79
2022/12/22 12:45:40;;;;;;;;;;;13.20;99.90;;;;;;6126925;23;19905;-80
2022/12/22 12:48:24;;;;;;;;;;;13.30;99.90;;;;;;6127133;23;20383;-80
2022/12/22 12:50:52;;;;;;;;;;;13.40;99.90;;;;;;6127195;23;19913;-79
2022/12/22 12:53:19;;;;;;;;;;;13.60;99.90;;;;;;6101020;23;20286;-79
2022/12/22 12:55:53;;;;;;;;;;;13.70;99.90;;;;;;6126608;23;19939;-79
2022/12/22 12:58:34;;;;;;;;;;;13.70;99.90;;;;;;6127138;23;19935;-79
2022/12/22 13:01:00;;;;;;;;;;;13.70;99.90;;;;;;6127015;23;20333;-80
2022/12/22 13:03:25;;;;;;;;;;;13.80;99.90;;;;;;6127145;23;20232;-80
2022/12/22 13:05:52;;;;;;;;;;;13.80;99.90;;;;;;6100498;23;19905;-80
2022/12/22 13:08:19;;;;;;;;;;;13.80;99.90;;;;;;6126727;23;19905;-79
2022/12/22 13:10:48;;;;;;;;;;;13.90;99.90;;;;;;6127006;23;19912;-79
2022/12/22 13:13:26;;;;;;;;;;;13.90;99.90;;;;;;6126947;23;19973;-79
2022/12/22 13:16:01;;;;;;;;;;;14.10;99.90;;;;;;6126441;23;19909;-79
2022/12/22 13:18:29;;;;;;;;;;;14.10;99.90;;;;;;6126941;23;19905;-78
2022/12/22 13:20:59;;;;;;;;;;;14.20;99.90;;;;;;6126383;23;20256;-79
2022/12/22 13:23:35;;;;;;;;;;;14.30;99.90;;;;;;6126907;23;19905;-79
2022/12/22 13:26:14;;;;;;;;;;;14.40;99.90;;;;;;6126351;23;20332;-80
2022/12/22 13:28:41;;;;;;;;;;;14.50;99.90;;;;;;6126960;23;19905;-79
2022/12/22 13:31:13;;;;;;;;;;;14.50;99.90;;;;;;6126616;23;19905;-79
2022/12/22 13:33:40;;;;;;;;;;;14.60;99.90;;;;;;6126833;23;20221;-78
2022/12/22 13:36:12;;;;;;;;;;;14.60;99.90;;;;;;6126201;23;20408;-80
2022/12/22 13:38:38;;;;;;;;;;;14.80;99.90;;;;;;6126902;23;19912;-79
2022/12/22 13:41:12;;;;;;;;;;;14.80;99.90;;;;;;6126534;23;19985;-78
2022/12/22 13:43:41;;;;;;;;;;;14.80;99.90;;;;;;6126726;23;19904;-79
2022/12/22 13:46:07;;;;;;;;;;;14.70;99.90;;;;;;6126197;23;19905;-78
2022/12/22 13:48:37;;;;;;;;;;;14.70;99.90;;;;;;6126918;23;19912;-78
2022/12/22 13:51:06;;;;;;;;;;;14.60;99.90;;;;;;6126607;23;20325;-78
2022/12/22 13:53:37;;;;;;;;;;;14.70;99.90;;;;;;6126431;23;19947;-79
2022/12/22 13:56:07;;;;;;;;;;;14.70;99.90;;;;;;6126049;23;19991;-79
2022/12/22 13:58:37;;;;;;;;;;;14.70;99.90;;;;;;6126434;23;19905;-79
2022/12/22 14:01:13;;;;;;;;;;;14.60;99.90;;;;;;6126672;23;19984;-79
2022/12/22 14:04:11;;;;;;;;;;;14.50;99.90;;;;;;6126600;23;19984;-79
2022/12/22 14:06:38;;;;;;;;;;;14.60;99.90;;;;;;6037540;23;20284;-78
2022/12/22 14:09:20;;;;;;;;;;;14.70;99.90;;;;;;6126477;23;19940;-78
2022/12/22 14:11:50;;;;;;;;;;;14.60;99.90;;;;;;6126458;23;19959;-78
2022/12/22 14:14:20;;;;;;;;;;;14.70;99.90;;;;;;6126500;23;19909;-79
2022/12/22 14:16:48;;;;;;;;;;;14.70;99.90;;;;;;6127004;23;19912;-79
2022/12/22 14:19:14;;;;;;;;;;;14.80;99.90;;;;;;6126316;23;19979;-78
2022/12/22 14:21:41;;;;;;;;;;;14.90;99.90;;;;;;6126474;23;19909;-79
2022/12/22 14:24:10;;;;;;;;;;;15.10;99.90;;;;;;6126368;23;19909;-78
2022/12/22 14:26:36;;;;;;;;;;;15.10;99.90;;;;;;6125951;23;19960;-78
2022/12/22 14:29:02;;;;;;;;;;;15.20;99.90;;;;;;6126452;23;19905;-77
2022/12/22 14:31:28;;;;;;;;;;;15.10;99.90;;;;;;6126319;23;20352;-78
2022/12/22 14:34:04;;;;;;;;;;;15.10;99.90;;;;;;6126387;23;19909;-77
2022/12/22 14:36:37;;;;;;;;;;;15.10;99.90;;;;;;6125748;23;19931;-78
2022/12/22 14:39:07;;;;;;;;;;;15.20;99.90;;;;;;6126404;23;20238;-78
2022/12/22 14:41:45;;;;;;;;;;;15.20;99.90;;;;;;6126369;23;19955;-79
2022/12/22 14:44:26;;;;;;;;;;;15.10;99.90;;;;;;6126217;23;20332;-78
2022/12/22 14:47:16;;;;;;;;;;;15.10;99.90;;;;;;6126288;23;19911;-78
2022/12/22 14:49:48;;;;;;;;;;;15.10;99.90;;;;;;6126447;23;19904;-79
2022/12/22 14:52:17;;;;;;;;;;;15.00;99.90;;;;;;6126702;23;19979;-79
2022/12/22 14:54:45;;;;;;;;;;;15.00;99.90;;;;;;6127723;23;19912;-78
2022/12/22 14:57:10;;;;;;;;;;;15.00;99.90;;;;;;6128157;23;20328;-79
2022/12/22 14:59:36;;;;;;;;;;;14.90;99.90;;;;;;6128241;23;19905;-78
2022/12/22 15:02:17;;;;;;;;;;;15.00;99.90;;;;;;6128269;23;19911;-79
2022/12/22 15:04:43;;;;;;;;;;;15.00;99.90;;;;;;6128058;23;20243;-79
2022/12/22 15:07:16;;;;;;;;;;;15.00;99.90;;;;;;6128021;23;19928;-77
2022/12/22 15:09:42;;;;;;;;;;;15.10;99.90;;;;;;6128160;23;19904;-77
2022/12/22 15:12:14;;;;;;;;;;;15.10;99.90;;;;;;6102137;23;20324;-78
2022/12/22 15:14:40;;;;;;;;;;;15.10;99.90;;;;;;6102017;23;19988;-78
2022/12/22 15:17:11;;;;;;;;;;;15.00;99.90;;;;;;6128049;23;19909;-79
2022/12/22 15:19:36;;;;;;;;;;;15.00;99.90;;;;;;6128051;23;19984;-78
2022/12/22 15:22:05;;;;;;;;;;;14.90;99.90;;;;;;6127969;23;19944;-78
2022/12/22 15:24:30;;;;;;;;;;;14.90;99.90;;;;;;6128051;23;19956;-78
2022/12/22 15:26:56;;;;;;;;;;;14.90;99.90;;;;;;6127390;23;20248;-79
2022/12/22 15:29:21;;;;;;;;;;;14.90;99.90;;;;;;6127947;23;19956;-78
2022/12/22 15:31:47;;;;;;;;;;;14.80;99.90;;;;;;6127741;23;20412;-77
2022/12/22 15:34:24;;;;;;;;;;;14.80;99.90;;;;;;6101896;23;19909;-78
2022/12/22 15:36:49;;;;;;;;;;;14.80;99.90;;;;;;6127354;23;20451;-79
2022/12/22 15:39:16;;;;;;;;;;;14.80;99.90;;;;;;6101905;23;19936;-77
2022/12/22 15:41:42;;;;;;;;;;;14.80;99.90;;;;;;6128091;23;19932;-78
2022/12/22 15:44:08;;;;;;;;;;;14.80;99.90;;;;;;6101516;23;20273;-78
2022/12/22 15:46:34;;;;;;;;;;;14.70;99.90;;;;;;6127307;23;19912;-78
2022/12/22 15:49:00;;;;;;;;;;;14.80;99.90;;;;;;6127803;23;19980;-78
2022/12/22 15:51:27;;;;;;;;;;;14.70;99.90;;;;;;6127795;23;20424;-78
2022/12/22 15:53:54;;;;;;;;;;;14.70;99.90;;;;;;6127502;23;19916;-79
2022/12/22 15:56:21;;;;;;;;;;;14.70;99.90;;;;;;6127224;23;19952;-77
2022/12/22 15:58:47;;;;;;;;;;;14.60;99.90;;;;;;6127822;23;20246;-78
2022/12/22 16:01:13;;;;;;;;;;;14.70;99.90;;;;;;6127605;23;19929;-78
2022/12/22 16:03:38;;;;;;;;;;;14.60;99.90;;;;;;6101634;23;20284;-78
2022/12/22 16:06:05;;;;;;;;;;;14.60;99.90;;;;;;6127321;23;19905;-79
2022/12/22 16:08:32;;;;;;;;;;;14.60;99.90;;;;;;6127300;23;19904;-79
2022/12/22 16:10:58;;;;;;;;;;;14.50;99.90;;;;;;6127680;23;19916;-78
2022/12/22 16:13:25;;;;;;;;;;;14.60;99.90;;;;;;6127416;23;19909;-78
2022/12/22 16:15:51;;;;;;;;;;;14.50;99.90;;;;;;6127290;23;19905;-79
2022/12/22 16:18:17;;;;;;;;;;;14.50;99.90;;;;;;6127479;23;19905;-78
2022/12/22 16:20:42;;;;;;;;;;;14.50;99.90;;;;;;6127281;23;20233;-77
2022/12/22 16:23:13;;;;;;;;;;;14.50;99.90;;;;;;6127471;23;19905;-77
2022/12/22 16:25:39;;;;;;;;;;;14.50;99.90;;;;;;6127228;23;19912;-77
2022/12/22 16:28:05;;;;;;;;;;;14.50;99.90;;;;;;6127467;23;20239;-78
2022/12/22 16:30:32;;;;;;;;;;;14.50;99.90;;;;;;6127455;23;19936;-78
2022/12/22 16:32:57;;;;;;;;;;;14.50;99.90;;;;;;6127365;23;19964;-78
2022/12/22 16:35:25;;;;;;;;;;;14.50;99.90;;;;;;6127036;23;19905;-77
2022/12/22 16:37:54;;;;;;;;;;;14.50;99.90;;;;;;6127354;23;19912;-78
2022/12/22 16:40:19;;;;;;;;;;;14.50;99.90;;;;;;6127225;23;19916;-78
2022/12/22 16:43:00;;;;;;;;;;;14.50;99.90;;;;;;6127368;23;19905;-77
2022/12/22 16:45:27;;;;;;;;;;;14.60;99.90;;;;;;6100964;23;19905;-77
2022/12/22 16:47:54;;;;;;;;;;;14.60;99.90;;;;;;6127398;23;19911;-77
2022/12/22 16:50:21;;;;;;;;;;;14.60;99.90;;;;;;6127209;23;19916;-78
2022/12/22 16:52:47;;;;;;;;;;;14.50;99.90;;;;;;6126931;23;19909;-77
2022/12/22 16:55:14;;;;;;;;;;;14.40;99.90;;;;;;6126625;23;20266;-77
2022/12/22 16:57:39;;;;;;;;;;;14.50;99.90;;;;;;6127119;23;19909;-78
2022/12/22 17:00:05;;;;;;;;;;;14.60;99.90;;;;;;6101130;23;19912;-78
2022/12/22 17:02:32;;;;;;;;;;;14.60;99.90;;;;;;6127032;23;19943;-77
2022/12/22 17:05:00;;;;;;;;;;;14.70;99.90;;;;;;6127315;23;19913;-77
2022/12/22 17:07:26;;;;;;;;;;;14.60;99.90;;;;;;6126696;23;19912;-78
2022/12/22 17:09:53;;;;;;;;;;;14.60;99.90;;;;;;6126911;23;19905;-78
2022/12/22 17:12:20;;;;;;;;;;;14.70;99.90;;;;;;6126928;23;19905;-78
2022/12/22 17:14:46;;;;;;;;;;;14.70;99.90;;;;;;6126752;23;20236;-77
2022/12/22 17:17:16;;;;;;;;;;;14.70;99.90;;;;;;6126577;23;19912;-78
2022/12/22 17:19:42;;;;;;;;;;;14.70;99.90;;;;;;6100787;23;20304;-78
2022/12/22 17:22:17;;;;;;;;;;;14.60;99.90;;;;;;6127024;23;19905;-78
2022/12/22 17:24:46;;;;;;;;;;;14.70;99.90;;;;;;6126890;23;20321;-79
2022/12/22 17:27:13;;;;;;;;;;;14.70;99.90;;;;;;6126531;23;19906;-79
2022/12/22 17:29:39;;;;;;;;;;;14.70;99.90;;;;;;6126693;23;19911;-78
2022/12/22 17:32:04;;;;;;;;;;;14.60;99.90;;;;;;6126604;23;20306;-78
2022/12/22 17:34:30;;;;;;;;;;;14.70;99.90;;;;;;6126912;23;19916;-78
2022/12/22 17:36:58;;;;;;;;;;;14.60;99.90;;;;;;6126354;23;19905;-78
2022/12/22 17:39:24;;;;;;;;;;;14.60;99.90;;;;;;6126777;23;19960;-78
2022/12/22 17:41:50;;;;;;;;;;;14.60;99.90;;;;;;6126595;23;19978;-80
2022/12/22 17:44:17;;;;;;;;;;;14.60;99.90;;;;;;6126346;23;20367;-78
2022/12/22 17:46:43;;;;;;;;;;;14.60;99.90;;;;;;6100261;23;20251;-79
2022/12/22 17:49:08;;;;;;;;;;;14.50;99.90;;;;;;6126733;23;19905;-78
2022/12/22 17:51:34;;;;;;;;;;;14.60;99.90;;;;;;6126702;23;20386;-78
2022/12/22 17:54:00;;;;;;;;;;;14.50;99.90;;;;;;6100533;23;19912;-78
2022/12/22 17:56:27;;;;;;;;;;;14.60;99.90;;;;;;6126110;23;19917;-79
2022/12/22 17:58:53;;;;;;;;;;;14.50;99.90;;;;;;6100691;23;19905;-79
2022/12/22 18:01:26;;;;;;;;;;;14.50;99.90;;;;;;6126788;23;19905;-79
2022/12/22 18:03:52;;;;;;;;;;;14.50;99.90;;;;;;6126551;23;19912;-77